createdAt,value
2022-12-29T00:00:26.463Z,27.48
2022-12-29T00:01:01.115Z,26.15
2022-12-29T00:01:33.097Z,24.30
2022-12-29T00:02:04.705Z,24.88
2022-12-29T00:02:36.396Z,25.63
2022-12-29T00:03:08.130Z,24.85
2022-12-29T00:03:39.928Z,22.98
2022-12-29T00:04:15.136Z,23.00
2022-12-29T00:04:47.223Z,26.85
2022-12-29T00:05:18.792Z,22.15
2022-12-29T00:05:56.368Z,25.92
2022-12-29T00:06:28.509Z,27.35
2022-12-29T00:07:00.175Z,25.35
2022-12-29T00:07:31.770Z,27.80
2022-12-29T00:08:03.383Z,23.73
2022-12-29T00:08:41.435Z,25.05
2022-12-29T00:09:14.125Z,23.17
2022-12-29T00:09:45.971Z,26.27
2022-12-29T00:10:17.661Z,26.40
2022-12-29T00:10:49.199Z,25.50
2022-12-29T00:11:26.046Z,23.17
2022-12-29T00:11:58.378Z,23.38
2022-12-29T00:12:49.968Z,28.52
2022-12-29T00:13:40.200Z,24.65
2022-12-29T00:14:31.560Z,25.17
2022-12-29T00:15:21.883Z,25.15
2022-12-29T00:15:53.480Z,20.40
2022-12-29T00:16:25.656Z,24.25
2022-12-29T00:16:57.892Z,25.70
2022-12-29T00:17:29.481Z,23.58
2022-12-29T00:18:01.137Z,25.77
2022-12-29T00:18:32.681Z,29.75
2022-12-29T00:19:06.028Z,24.58
2022-12-29T00:19:57.231Z,25.33
2022-12-29T00:20:47.668Z,24.83
2022-12-29T00:21:39.825Z,26.25
2022-12-29T00:22:31.848Z,27.05
2022-12-29T00:23:21.480Z,26.40
2022-12-29T00:24:28.138Z,24.90
2022-12-29T00:25:02.930Z,23.42
2022-12-29T00:25:55.788Z,24.98
2022-12-29T00:26:46.180Z,27.40
2022-12-29T00:27:36.136Z,23.70
2022-12-29T00:28:28.890Z,22.98
2022-12-29T00:29:18.959Z,24.00
2022-12-29T00:30:09.568Z,24.48
2022-12-29T00:31:00.074Z,22.05
2022-12-29T00:31:50.499Z,27.13
2022-12-29T00:32:40.868Z,23.75
2022-12-29T00:33:38.154Z,27.25
2022-12-29T00:34:30.585Z,22.90
2022-12-29T00:35:11.123Z,22.20
2022-12-29T00:35:53.272Z,24.42
2022-12-29T00:36:32.369Z,23.48
2022-12-29T00:37:04.855Z,26.05
2022-12-29T00:38:01.499Z,27.10
2022-12-29T00:38:56.411Z,23.40
2022-12-29T00:39:46.885Z,21.92
2022-12-29T00:40:36.761Z,25.55
2022-12-29T00:41:26.883Z,23.58
2022-12-29T00:42:21.519Z,24.20
2022-12-29T00:43:11.368Z,23.50
2022-12-29T00:44:01.177Z,24.65
2022-12-29T00:44:32.771Z,23.83
2022-12-29T00:45:06.144Z,25.13
2022-12-29T00:45:37.748Z,24.05
2022-12-29T00:46:12.899Z,24.02
2022-12-29T00:46:47.701Z,23.77
2022-12-29T00:47:19.390Z,22.50
2022-12-29T00:47:50.960Z,25.10
2022-12-29T00:48:41.663Z,25.63
2022-12-29T00:49:33.385Z,26.17
2022-12-29T00:50:05.620Z,23.30
2022-12-29T00:50:37.266Z,23.02
2022-12-29T00:51:09.147Z,24.30
2022-12-29T00:51:40.757Z,25.40
2022-12-29T00:52:13.984Z,26.30
2022-12-29T00:52:45.587Z,25.90
2022-12-29T00:53:17.128Z,26.63
2022-12-29T00:53:49.279Z,23.83
2022-12-29T00:54:21.182Z,24.55
2022-12-29T00:54:52.725Z,23.80
2022-12-29T00:55:24.278Z,24.73
2022-12-29T00:55:55.823Z,25.73
2022-12-29T00:56:27.439Z,23.98
2022-12-29T00:56:59.010Z,25.00
2022-12-29T00:57:30.573Z,26.23
2022-12-29T00:58:02.143Z,26.10
2022-12-29T00:58:33.706Z,23.30
2022-12-29T00:59:08.153Z,22.50
2022-12-29T00:59:41.669Z,24.88
2022-12-29T01:00:13.785Z,22.88
2022-12-29T01:00:45.785Z,23.40
2022-12-29T01:01:17.536Z,22.95
2022-12-29T01:01:49.775Z,24.98
2022-12-29T01:02:21.633Z,29.73
2022-12-29T01:02:53.453Z,25.65
2022-12-29T01:03:25.077Z,23.65
2022-12-29T01:04:02.004Z,23.83
2022-12-29T01:04:35.831Z,24.08
2022-12-29T01:05:07.674Z,25.08
2022-12-29T01:05:39.316Z,23.90
2022-12-29T01:06:12.034Z,23.05
2022-12-29T01:06:43.660Z,21.80
2022-12-29T01:07:15.225Z,23.90
2022-12-29T01:07:46.763Z,23.88
2022-12-29T01:08:18.320Z,25.45
2022-12-29T01:09:13.036Z,24.60
2022-12-29T01:10:02.892Z,25.08
2022-12-29T01:10:34.487Z,23.77
2022-12-29T01:11:08.420Z,22.15
2022-12-29T01:11:41.372Z,25.52
2022-12-29T01:12:13.033Z,24.75
2022-12-29T01:12:46.186Z,24.95
2022-12-29T01:13:17.996Z,25.85
2022-12-29T01:13:49.603Z,26.42
2022-12-29T01:14:22.234Z,24.40
2022-12-29T01:14:53.825Z,24.60
2022-12-29T01:15:25.389Z,24.67
2022-12-29T01:15:57.419Z,24.55
2022-12-29T01:16:30.472Z,22.23
2022-12-29T01:17:02.274Z,24.63
2022-12-29T01:17:33.896Z,27.52
2022-12-29T01:18:06.199Z,24.42
2022-12-29T01:18:37.748Z,25.85
2022-12-29T01:19:09.824Z,23.30
2022-12-29T01:19:41.440Z,26.08
2022-12-29T01:20:13.519Z,27.30
2022-12-29T01:20:45.754Z,23.80
2022-12-29T01:21:17.348Z,26.40
2022-12-29T01:21:50.195Z,23.00
2022-12-29T01:22:21.736Z,26.25
2022-12-29T01:22:53.434Z,25.48
2022-12-29T01:23:25.041Z,25.08
2022-12-29T01:23:56.655Z,24.80
2022-12-29T01:24:28.341Z,25.98
2022-12-29T01:24:59.971Z,26.42
2022-12-29T01:25:31.501Z,25.13
2022-12-29T01:26:13.441Z,25.15
2022-12-29T01:26:45.923Z,25.73
2022-12-29T01:27:17.504Z,22.42
2022-12-29T01:27:49.790Z,21.55
2022-12-29T01:28:25.890Z,23.38
2022-12-29T01:28:57.809Z,24.38
2022-12-29T01:29:29.396Z,26.42
2022-12-29T01:30:00.979Z,24.70
2022-12-29T01:30:33.521Z,24.45
2022-12-29T01:31:05.287Z,24.52
2022-12-29T01:31:37.239Z,23.27
2022-12-29T01:32:08.899Z,23.85
2022-12-29T01:32:40.563Z,22.77
2022-12-29T01:33:12.154Z,23.58
2022-12-29T01:33:44.723Z,24.90
2022-12-29T01:34:16.393Z,23.20
2022-12-29T01:34:47.977Z,26.15
2022-12-29T01:35:19.628Z,25.05
2022-12-29T01:35:51.228Z,23.70
2022-12-29T01:36:22.808Z,24.25
2022-12-29T01:36:54.431Z,24.30
2022-12-29T01:37:26.004Z,26.30
2022-12-29T01:37:57.609Z,22.85
2022-12-29T01:38:29.198Z,24.83
2022-12-29T01:39:00.903Z,28.27
2022-12-29T01:39:32.483Z,23.13
2022-12-29T01:40:04.424Z,24.88
2022-12-29T01:40:44.409Z,23.75
2022-12-29T01:41:17.476Z,23.55
2022-12-29T01:41:50.187Z,24.42
2022-12-29T01:42:26.396Z,23.73
2022-12-29T01:42:58.106Z,26.17
2022-12-29T01:43:47.916Z,23.95
2022-12-29T01:44:56.416Z,26.30
2022-12-29T01:45:28.153Z,22.60
2022-12-29T01:45:59.903Z,23.65
2022-12-29T01:46:37.552Z,22.77
2022-12-29T01:47:09.440Z,22.30
2022-12-29T01:47:45.891Z,23.02
2022-12-29T01:48:18.388Z,21.95
2022-12-29T01:48:52.798Z,23.80
2022-12-29T01:49:28.027Z,22.20
2022-12-29T01:50:04.935Z,22.05
2022-12-29T01:50:40.970Z,21.80
2022-12-29T01:51:12.581Z,23.33
2022-12-29T01:51:46.573Z,25.08
2022-12-29T01:52:18.185Z,23.08
2022-12-29T01:53:02.740Z,25.77
2022-12-29T01:53:36.121Z,25.73
2022-12-29T01:54:14.896Z,24.25
2022-12-29T01:54:52.925Z,23.35
2022-12-29T01:55:27.403Z,21.02
2022-12-29T01:56:03.270Z,22.75
2022-12-29T01:56:35.132Z,24.77
2022-12-29T01:57:10.732Z,22.92
2022-12-29T01:57:46.716Z,23.92
2022-12-29T01:58:23.591Z,23.58
2022-12-29T01:59:03.447Z,22.30
2022-12-29T01:59:44.183Z,22.33
2022-12-29T02:01:11.804Z,21.52
2022-12-29T02:01:43.562Z,23.42
2022-12-29T02:02:15.341Z,22.77
2022-12-29T02:02:51.903Z,25.05
2022-12-29T02:03:27.621Z,23.42
2022-12-29T02:03:59.625Z,22.08
2022-12-29T02:04:33.528Z,25.52
2022-12-29T02:05:15.379Z,24.15
2022-12-29T02:05:56.188Z,23.83
2022-12-29T02:06:33.520Z,23.00
2022-12-29T02:07:10.941Z,22.20
2022-12-29T02:07:43.393Z,20.20
2022-12-29T02:08:15.207Z,25.52
2022-12-29T02:08:48.528Z,23.42
2022-12-29T02:09:20.494Z,25.83
2022-12-29T02:09:53.890Z,20.10
2022-12-29T02:10:28.784Z,21.40
2022-12-29T02:11:01.980Z,22.17
2022-12-29T02:11:33.898Z,21.90
2022-12-29T02:12:05.728Z,23.77
2022-12-29T02:12:37.456Z,24.27
2022-12-29T02:13:09.075Z,23.83
2022-12-29T02:13:40.681Z,23.85
2022-12-29T02:14:14.401Z,25.38
2022-12-29T02:14:47.189Z,23.80
2022-12-29T02:15:20.445Z,21.90
2022-12-29T02:16:10.190Z,21.83
2022-12-29T02:16:51.070Z,20.35
2022-12-29T02:17:54.829Z,25.02
2022-12-29T02:18:54.767Z,22.73
2022-12-29T02:19:44.884Z,22.95
2022-12-29T02:20:37.967Z,21.63
2022-12-29T02:21:12.288Z,24.83
2022-12-29T02:21:58.926Z,29.08
2022-12-29T02:22:44.153Z,29.75
2022-12-29T02:23:30.512Z,28.15
2022-12-29T02:24:17.096Z,26.38
2022-12-29T02:25:14.174Z,24.63
2022-12-29T02:26:04.376Z,23.27
2022-12-29T02:27:02.207Z,23.52
2022-12-29T02:28:05.364Z,23.73
2022-12-29T02:28:48.841Z,22.88
2022-12-29T02:29:42.144Z,23.63
2022-12-29T02:31:10.108Z,20.73
2022-12-29T02:32:01.536Z,21.42
2022-12-29T02:32:42.320Z,25.02
2022-12-29T02:33:41.560Z,23.42
2022-12-29T02:34:41.919Z,23.98
2022-12-29T02:35:41.363Z,25.80
2022-12-29T02:36:20.647Z,22.98
2022-12-29T02:37:16.613Z,23.67
2022-12-29T02:38:08.655Z,22.05
2022-12-29T02:39:22.283Z,25.10
2022-12-29T02:40:09.838Z,23.85
2022-12-29T02:40:52.715Z,24.08
2022-12-29T02:41:49.168Z,25.73
2022-12-29T02:42:20.726Z,25.50
2022-12-29T02:43:04.644Z,24.85
2022-12-29T02:43:52.163Z,24.15
2022-12-29T02:44:37.719Z,24.30
2022-12-29T02:45:19.304Z,25.13
2022-12-29T02:46:05.182Z,25.70
2022-12-29T02:46:38.716Z,27.27
2022-12-29T02:47:35.993Z,25.10
2022-12-29T02:48:07.551Z,26.77
2022-12-29T02:48:47.203Z,26.58
2022-12-29T02:49:30.182Z,26.88
2022-12-29T02:50:04.355Z,26.33
2022-12-29T02:50:55.423Z,26.20
2022-12-29T02:51:59.623Z,26.92
2022-12-29T02:52:40.255Z,25.00
2022-12-29T02:53:17.087Z,24.70
2022-12-29T02:54:08.263Z,24.38
2022-12-29T02:54:44.114Z,25.38
2022-12-29T02:55:15.797Z,26.30
2022-12-29T02:55:51.150Z,23.23
2022-12-29T02:56:22.909Z,25.30
2022-12-29T02:56:54.517Z,27.27
2022-12-29T02:57:27.514Z,25.73
2022-12-29T02:58:20.728Z,24.98
2022-12-29T02:58:52.307Z,27.08
2022-12-29T02:59:24.415Z,27.67
2022-12-29T03:00:04.425Z,25.65
2022-12-29T03:00:45.763Z,25.27
2022-12-29T03:01:26.225Z,28.17
2022-12-29T03:02:19.328Z,24.50
2022-12-29T03:03:09.288Z,30.60
2022-12-29T03:04:14.658Z,25.58
2022-12-29T03:04:55.992Z,28.73
2022-12-29T03:05:42.505Z,31.02
2022-12-29T03:06:32.714Z,27.85
2022-12-29T03:07:18.145Z,27.10
2022-12-29T03:08:14.912Z,32.90
2022-12-29T03:09:24.558Z,27.70
2022-12-29T03:10:21.494Z,29.35
2022-12-29T03:11:31.765Z,30.20
2022-12-29T03:12:51.013Z,28.65
2022-12-29T03:14:01.708Z,25.92
2022-12-29T03:15:16.485Z,28.48
2022-12-29T03:16:25.764Z,26.00
2022-12-29T03:17:03.252Z,28.00
2022-12-29T03:17:55.703Z,25.95
2022-12-29T03:18:35.596Z,25.30
2022-12-29T03:19:15.297Z,27.05
2022-12-29T03:19:52.144Z,27.70
2022-12-29T03:20:28.473Z,25.58
2022-12-29T03:21:14.858Z,29.73
2022-12-29T03:22:11.716Z,26.70
2022-12-29T03:22:48.681Z,26.38
2022-12-29T03:23:22.347Z,25.42
2022-12-29T03:23:53.949Z,26.23
2022-12-29T03:24:29.861Z,26.35
2022-12-29T03:25:09.040Z,27.13
2022-12-29T03:25:47.273Z,27.23
2022-12-29T03:26:20.893Z,30.17
2022-12-29T03:26:55.988Z,25.33
2022-12-29T03:27:35.049Z,28.25
2022-12-29T03:28:11.722Z,27.08
2022-12-29T03:28:50.151Z,28.17
2022-12-29T03:29:21.986Z,27.17
2022-12-29T03:29:58.481Z,27.70
2022-12-29T03:30:33.464Z,26.50
2022-12-29T03:31:08.075Z,24.92
2022-12-29T03:31:40.384Z,27.35
2022-12-29T03:32:15.692Z,26.92
2022-12-29T03:32:55.883Z,29.48
2022-12-29T03:33:29.996Z,26.80
2022-12-29T03:34:02.390Z,29.73
2022-12-29T03:34:35.112Z,25.63
2022-12-29T03:35:09.314Z,28.85
2022-12-29T03:35:43.670Z,27.92
2022-12-29T03:36:24.849Z,27.05
2022-12-29T03:37:03.961Z,28.05
2022-12-29T03:37:40.278Z,26.23
2022-12-29T03:38:20.503Z,23.95
2022-12-29T03:39:01.158Z,28.00
2022-12-29T03:39:33.019Z,29.05
2022-12-29T03:40:06.792Z,27.02
2022-12-29T03:40:42.983Z,27.52
2022-12-29T03:41:19.466Z,31.55
2022-12-29T03:41:56.840Z,25.67
2022-12-29T03:42:31.937Z,29.55
2022-12-29T03:43:05.112Z,27.33
2022-12-29T03:43:36.863Z,26.10
2022-12-29T03:44:08.528Z,28.67
2022-12-29T03:44:42.785Z,30.55
2022-12-29T03:45:14.732Z,27.98
2022-12-29T03:45:46.370Z,27.70
2022-12-29T03:46:18.048Z,27.95
2022-12-29T03:46:51.209Z,27.27
2022-12-29T03:47:23.895Z,27.48
2022-12-29T03:47:55.458Z,25.40
2022-12-29T03:48:27.130Z,26.92
2022-12-29T03:48:58.871Z,25.70
2022-12-29T03:49:30.516Z,26.35
2022-12-29T03:50:02.162Z,29.95
2022-12-29T03:50:33.856Z,27.20
2022-12-29T03:51:06.122Z,27.90
2022-12-29T03:51:37.773Z,28.67
2022-12-29T03:52:09.600Z,24.65
2022-12-29T03:52:41.326Z,27.50
2022-12-29T03:53:13.001Z,28.88
2022-12-29T03:53:44.611Z,26.65
2022-12-29T03:54:16.240Z,26.08
2022-12-29T03:54:48.280Z,25.80
2022-12-29T03:55:19.876Z,24.25
2022-12-29T03:55:51.867Z,29.70
2022-12-29T03:56:23.501Z,26.65
2022-12-29T03:56:55.069Z,27.52
2022-12-29T03:57:26.640Z,28.38
2022-12-29T03:57:58.225Z,24.67
2022-12-29T03:58:29.773Z,26.48
2022-12-29T03:59:01.396Z,25.67
2022-12-29T03:59:33.068Z,28.50
2022-12-29T04:00:06.752Z,25.38
2022-12-29T04:00:39.091Z,26.73
2022-12-29T04:01:10.758Z,26.23
2022-12-29T04:01:42.551Z,26.80
2022-12-29T04:02:14.473Z,28.98
2022-12-29T04:02:46.441Z,26.40
2022-12-29T04:03:19.310Z,28.38
2022-12-29T04:03:50.997Z,22.75
2022-12-29T04:04:22.764Z,25.23
2022-12-29T04:04:54.309Z,25.52
2022-12-29T04:05:25.877Z,25.52
2022-12-29T04:05:57.539Z,24.25
2022-12-29T04:06:29.153Z,27.88
2022-12-29T04:07:00.742Z,27.25
2022-12-29T04:07:32.413Z,29.02
2022-12-29T04:08:04.060Z,25.95
2022-12-29T04:08:35.647Z,27.30
2022-12-29T04:09:07.767Z,27.98
2022-12-29T04:09:39.408Z,30.70
2022-12-29T04:10:11.024Z,25.55
2022-12-29T04:10:42.610Z,26.33
2022-12-29T04:11:14.231Z,28.98
2022-12-29T04:11:45.977Z,29.17
2022-12-29T04:12:17.605Z,26.60
2022-12-29T04:12:49.966Z,26.92
2022-12-29T04:13:21.669Z,31.85
2022-12-29T04:13:53.236Z,26.30
2022-12-29T04:14:24.852Z,29.00
2022-12-29T04:14:56.432Z,28.27
2022-12-29T04:15:28.112Z,26.08
2022-12-29T04:15:59.779Z,27.60
2022-12-29T04:16:31.545Z,25.33
2022-12-29T04:17:03.233Z,28.23
2022-12-29T04:17:34.865Z,30.70
2022-12-29T04:18:06.475Z,26.30
2022-12-29T04:18:38.075Z,29.02
2022-12-29T04:19:09.672Z,28.40
2022-12-29T04:19:41.237Z,26.77
2022-12-29T04:20:31.099Z,29.52
2022-12-29T04:21:03.770Z,26.02
2022-12-29T04:21:35.717Z,25.75
2022-12-29T04:22:07.446Z,25.45
2022-12-29T04:22:39.026Z,28.85
2022-12-29T04:23:10.619Z,26.80
2022-12-29T04:23:42.222Z,26.92
2022-12-29T04:24:14.064Z,25.95
2022-12-29T04:24:45.660Z,25.75
2022-12-29T04:25:17.342Z,26.50
2022-12-29T04:25:50.173Z,27.50
2022-12-29T04:26:21.851Z,29.95
2022-12-29T04:26:53.463Z,27.38
2022-12-29T04:27:25.013Z,28.90
2022-12-29T04:27:56.628Z,30.10
2022-12-29T04:28:28.938Z,28.23
2022-12-29T04:29:00.715Z,26.92
2022-12-29T04:29:32.327Z,28.17
2022-12-29T04:30:04.536Z,27.00
2022-12-29T04:30:36.137Z,27.35
2022-12-29T04:31:07.822Z,27.17
2022-12-29T04:31:39.591Z,26.48
2022-12-29T04:32:11.207Z,25.77
2022-12-29T04:32:42.833Z,27.27
2022-12-29T04:33:14.690Z,27.17
2022-12-29T04:33:46.553Z,26.77
2022-12-29T04:34:18.180Z,27.52
2022-12-29T04:34:50.145Z,28.35
2022-12-29T04:35:21.766Z,26.60
2022-12-29T04:35:55.036Z,28.65
2022-12-29T04:36:30.089Z,26.52
2022-12-29T04:37:01.967Z,28.05
2022-12-29T04:37:33.599Z,29.33
2022-12-29T04:38:06.008Z,24.50
2022-12-29T04:38:37.651Z,27.90
2022-12-29T04:39:09.378Z,23.30
2022-12-29T04:39:40.962Z,27.30
2022-12-29T04:40:12.879Z,28.48
2022-12-29T04:40:44.592Z,27.13
2022-12-29T04:41:16.190Z,28.70
2022-12-29T04:41:48.689Z,27.88
2022-12-29T04:42:20.275Z,28.60
2022-12-29T04:42:51.932Z,27.17
2022-12-29T04:43:23.509Z,26.55
2022-12-29T04:43:55.125Z,26.95
2022-12-29T04:44:26.694Z,27.88
2022-12-29T04:44:58.428Z,27.95
2022-12-29T04:45:30.061Z,27.27
2022-12-29T04:46:01.687Z,24.00
2022-12-29T04:46:33.405Z,26.30
2022-12-29T04:47:05.633Z,27.02
2022-12-29T04:47:37.368Z,23.42
2022-12-29T04:48:08.957Z,27.85
2022-12-29T04:48:40.636Z,25.58
2022-12-29T04:49:12.262Z,25.77
2022-12-29T04:49:43.867Z,27.50
2022-12-29T04:50:15.538Z,27.08
2022-12-29T04:50:49.982Z,27.08
2022-12-29T04:51:21.627Z,25.90
2022-12-29T04:51:53.296Z,27.35
2022-12-29T04:52:24.900Z,25.50
2022-12-29T04:52:56.627Z,23.10
2022-12-29T04:53:28.224Z,27.02
2022-12-29T04:53:59.865Z,24.35
2022-12-29T04:54:31.465Z,25.50
2022-12-29T04:55:03.255Z,25.52
2022-12-29T04:55:35.072Z,26.08
2022-12-29T04:56:07.017Z,26.92
2022-12-29T04:56:39.062Z,28.08
2022-12-29T04:57:10.652Z,25.98
2022-12-29T04:57:42.371Z,26.50
2022-12-29T04:58:18.983Z,28.95
2022-12-29T04:58:53.911Z,26.90
2022-12-29T04:59:25.500Z,26.27
2022-12-29T04:59:57.092Z,24.77
2022-12-29T05:00:28.753Z,26.23
2022-12-29T05:01:00.379Z,24.52
2022-12-29T05:01:32.060Z,29.25
2022-12-29T05:02:03.928Z,25.33
2022-12-29T05:02:36.418Z,26.73
2022-12-29T05:03:08.267Z,28.65
2022-12-29T05:03:40.027Z,26.25
2022-12-29T05:04:11.749Z,29.52
2022-12-29T05:04:43.417Z,27.30
2022-12-29T05:05:15.421Z,28.17
2022-12-29T05:05:47.123Z,25.65
2022-12-29T05:06:18.721Z,30.67
2022-12-29T05:06:50.488Z,29.02
2022-12-29T05:07:22.112Z,26.13
2022-12-29T05:07:53.757Z,28.48
2022-12-29T05:08:28.358Z,27.52
2022-12-29T05:09:00.209Z,27.58
2022-12-29T05:09:31.854Z,27.63
2022-12-29T05:10:04.235Z,28.98
2022-12-29T05:10:35.821Z,28.83
2022-12-29T05:11:07.478Z,28.80
2022-12-29T05:11:39.149Z,27.25
2022-12-29T05:12:10.748Z,26.88
2022-12-29T05:12:42.381Z,27.20
2022-12-29T05:13:14.069Z,27.25
2022-12-29T05:13:47.570Z,28.95
2022-12-29T05:14:19.175Z,27.67
2022-12-29T05:14:50.803Z,27.70
2022-12-29T05:15:22.437Z,25.73
2022-12-29T05:15:54.952Z,26.85
2022-12-29T05:16:26.676Z,26.23
2022-12-29T05:16:58.303Z,25.48
2022-12-29T05:17:30.204Z,25.67
2022-12-29T05:18:01.835Z,26.27
2022-12-29T05:18:33.445Z,29.63
2022-12-29T05:19:05.109Z,28.08
2022-12-29T05:19:36.669Z,28.52
2022-12-29T05:20:09.158Z,27.65
2022-12-29T05:20:40.723Z,29.58
2022-12-29T05:21:12.314Z,27.55
2022-12-29T05:21:44.357Z,28.25
2022-12-29T05:22:15.964Z,28.02
2022-12-29T05:22:47.609Z,29.92
2022-12-29T05:23:19.277Z,29.45
2022-12-29T05:23:50.877Z,28.20
2022-12-29T05:24:22.503Z,27.65
2022-12-29T05:24:54.072Z,27.95
2022-12-29T05:25:25.674Z,30.33
2022-12-29T05:25:57.280Z,26.65
2022-12-29T05:26:29.017Z,27.95
2022-12-29T05:27:00.692Z,26.73
2022-12-29T05:27:32.309Z,29.92
2022-12-29T05:28:04.223Z,29.27
2022-12-29T05:28:35.813Z,31.98
2022-12-29T05:29:07.433Z,29.30
2022-12-29T05:29:39.234Z,27.55
2022-12-29T05:30:11.596Z,27.00
2022-12-29T05:30:43.228Z,29.67
2022-12-29T05:31:14.900Z,31.23
2022-12-29T05:31:46.678Z,29.45
2022-12-29T05:32:18.336Z,28.25
2022-12-29T05:32:50.590Z,29.80
2022-12-29T05:33:22.157Z,29.58
2022-12-29T05:33:53.957Z,29.40
2022-12-29T05:34:25.819Z,28.90
2022-12-29T05:34:57.460Z,27.58
2022-12-29T05:35:29.055Z,31.00
2022-12-29T05:36:08.206Z,29.05
2022-12-29T05:36:40.141Z,27.08
2022-12-29T05:37:11.741Z,29.42
2022-12-29T05:37:43.339Z,27.65
2022-12-29T05:38:14.936Z,26.80
2022-12-29T05:38:46.615Z,29.75
2022-12-29T05:39:18.285Z,26.83
2022-12-29T05:39:50.039Z,26.95
2022-12-29T05:40:21.618Z,27.48
2022-12-29T05:40:53.177Z,27.13
2022-12-29T05:41:24.913Z,29.48
2022-12-29T05:41:56.677Z,25.83
2022-12-29T05:42:28.263Z,26.48
2022-12-29T05:42:59.850Z,29.67
2022-12-29T05:43:31.415Z,27.63
2022-12-29T05:44:03.180Z,27.20
2022-12-29T05:44:34.772Z,29.75
2022-12-29T05:45:08.253Z,27.48
2022-12-29T05:45:39.873Z,32.10
2022-12-29T05:46:11.499Z,31.42
2022-12-29T05:46:43.217Z,29.75
2022-12-29T05:47:14.871Z,28.58
2022-12-29T05:47:46.492Z,30.73
2022-12-29T05:48:18.096Z,25.75
2022-12-29T05:48:49.930Z,29.25
2022-12-29T05:49:21.546Z,29.00
2022-12-29T05:49:53.161Z,28.45
2022-12-29T05:50:24.760Z,29.60
2022-12-29T05:50:56.412Z,31.30
2022-12-29T05:51:28.009Z,29.23
2022-12-29T05:51:59.636Z,28.02
2022-12-29T05:52:31.237Z,30.45
2022-12-29T05:53:02.871Z,32.10
2022-12-29T05:53:34.444Z,29.73
2022-12-29T05:54:06.141Z,28.17
2022-12-29T05:54:37.716Z,30.67
2022-12-29T05:55:09.598Z,28.88
2022-12-29T05:55:46.790Z,30.75
2022-12-29T05:56:20.214Z,27.90
2022-12-29T05:56:51.949Z,30.33
2022-12-29T05:57:23.658Z,33.55
2022-12-29T05:57:55.246Z,29.92
2022-12-29T05:58:26.868Z,34.15
2022-12-29T05:58:58.496Z,35.58
2022-12-29T05:59:30.231Z,32.50
2022-12-29T06:00:01.932Z,33.25
2022-12-29T06:00:33.529Z,34.35
2022-12-29T06:01:05.376Z,33.80
2022-12-29T06:01:37.170Z,30.88
2022-12-29T06:02:09.036Z,36.25
2022-12-29T06:02:40.959Z,30.13
2022-12-29T06:03:12.811Z,30.77
2022-12-29T06:03:48.198Z,32.38
2022-12-29T06:04:20.221Z,32.83
2022-12-29T06:04:51.903Z,29.58
2022-12-29T06:05:23.613Z,33.17
2022-12-29T06:05:55.521Z,32.45
2022-12-29T06:06:27.092Z,34.30
2022-12-29T06:06:58.720Z,32.25
2022-12-29T06:07:30.390Z,31.30
2022-12-29T06:08:02.086Z,31.27
2022-12-29T06:08:33.754Z,29.77
2022-12-29T06:09:05.343Z,34.45
2022-12-29T06:09:36.951Z,40.92
2022-12-29T06:10:08.979Z,36.25
2022-12-29T06:10:40.581Z,36.30
2022-12-29T06:11:12.295Z,28.85
2022-12-29T06:11:44.072Z,31.30
2022-12-29T06:12:15.709Z,30.60
2022-12-29T06:12:48.036Z,31.30
2022-12-29T06:13:19.750Z,32.60
2022-12-29T06:13:51.413Z,30.83
2022-12-29T06:14:23.068Z,32.13
2022-12-29T06:14:54.624Z,33.28
2022-12-29T06:15:26.257Z,39.17
2022-12-29T06:15:57.962Z,34.17
2022-12-29T06:16:29.659Z,28.92
2022-12-29T06:17:01.280Z,34.63
2022-12-29T06:17:32.846Z,33.58
2022-12-29T06:18:04.465Z,32.97
2022-12-29T06:18:36.071Z,32.20
2022-12-29T06:19:07.615Z,34.38
2022-12-29T06:19:39.179Z,30.63
2022-12-29T06:20:11.641Z,30.50
2022-12-29T06:20:43.392Z,30.85
2022-12-29T06:21:15.043Z,28.15
2022-12-29T06:21:46.904Z,30.25
2022-12-29T06:22:18.534Z,31.10
2022-12-29T06:22:50.442Z,29.48
2022-12-29T06:23:22.044Z,31.02
2022-12-29T06:23:53.983Z,29.95
2022-12-29T06:24:25.689Z,31.70
2022-12-29T06:25:03.081Z,29.80
2022-12-29T06:25:36.967Z,31.02
2022-12-29T06:26:08.591Z,29.33
2022-12-29T06:26:41.271Z,29.80
2022-12-29T06:27:12.941Z,31.58
2022-12-29T06:27:44.887Z,33.75
2022-12-29T06:28:16.481Z,34.92
2022-12-29T06:28:49.215Z,30.05
2022-12-29T06:29:21.680Z,32.38
2022-12-29T06:29:53.327Z,31.65
2022-12-29T06:30:25.006Z,32.75
2022-12-29T06:30:56.645Z,34.33
2022-12-29T06:31:28.252Z,33.78
2022-12-29T06:32:00.031Z,32.53
2022-12-29T06:32:31.842Z,30.15
2022-12-29T06:33:03.638Z,33.80
2022-12-29T06:33:35.216Z,36.38
2022-12-29T06:34:08.650Z,38.05
2022-12-29T06:34:40.414Z,45.55
2022-12-29T06:35:12.143Z,41.15
2022-12-29T06:35:44.292Z,46.05
2022-12-29T06:36:15.912Z,43.13
2022-12-29T06:36:49.041Z,42.88
2022-12-29T06:37:20.614Z,41.15
2022-12-29T06:37:52.334Z,36.55
2022-12-29T06:38:23.940Z,35.20
2022-12-29T06:38:55.911Z,39.75
2022-12-29T06:39:27.548Z,35.42
2022-12-29T06:39:59.474Z,32.33
2022-12-29T06:40:31.247Z,35.80
2022-12-29T06:41:02.883Z,34.22
2022-12-29T06:41:34.505Z,34.50
2022-12-29T06:42:06.098Z,34.90
2022-12-29T06:42:37.645Z,32.30
2022-12-29T06:43:09.227Z,35.03
2022-12-29T06:43:40.837Z,35.58
2022-12-29T06:44:12.401Z,36.78
2022-12-29T06:44:44.016Z,33.70
2022-12-29T06:45:15.636Z,34.38
2022-12-29T06:45:47.262Z,36.55
2022-12-29T06:46:18.910Z,35.90
2022-12-29T06:46:51.414Z,36.42
2022-12-29T06:47:22.969Z,34.15
2022-12-29T06:47:54.631Z,34.28
2022-12-29T06:48:26.276Z,32.20
2022-12-29T06:48:57.866Z,34.88
2022-12-29T06:49:29.475Z,36.63
2022-12-29T06:50:01.450Z,32.83
2022-12-29T06:50:33.097Z,29.20
2022-12-29T06:51:05.022Z,32.95
2022-12-29T06:51:36.631Z,34.58
2022-12-29T06:52:12.692Z,30.20
2022-12-29T06:52:44.867Z,30.75
2022-12-29T06:53:16.477Z,34.20
2022-12-29T06:53:48.037Z,37.13
2022-12-29T06:54:19.648Z,33.58
2022-12-29T06:54:51.355Z,32.47
2022-12-29T06:55:23.392Z,36.63
2022-12-29T06:55:55.293Z,33.88
2022-12-29T06:56:26.883Z,36.22
2022-12-29T06:56:58.988Z,33.03
2022-12-29T06:57:30.618Z,34.90
2022-12-29T06:58:02.273Z,34.95
2022-12-29T06:58:33.902Z,33.92
2022-12-29T06:59:06.196Z,35.72
2022-12-29T06:59:37.833Z,35.58
2022-12-29T07:00:10.053Z,34.88
2022-12-29T07:00:41.668Z,36.42
2022-12-29T07:01:13.279Z,36.10
2022-12-29T07:01:45.854Z,35.85
2022-12-29T07:02:20.237Z,37.38
2022-12-29T07:02:52.316Z,34.72
2022-12-29T07:03:24.071Z,34.03
2022-12-29T07:03:55.727Z,33.70
2022-12-29T07:04:27.442Z,33.88
2022-12-29T07:04:59.043Z,35.25
2022-12-29T07:05:32.551Z,33.63
2022-12-29T07:06:05.369Z,34.95
2022-12-29T07:06:37.215Z,35.08
2022-12-29T07:07:08.830Z,35.22
2022-12-29T07:07:40.468Z,34.88
2022-12-29T07:08:12.187Z,36.70
2022-12-29T07:08:43.796Z,33.65
2022-12-29T07:09:15.388Z,38.00
2022-12-29T07:09:47.265Z,31.80
2022-12-29T07:10:18.829Z,34.78
2022-12-29T07:10:50.439Z,35.63
2022-12-29T07:11:22.532Z,38.17
2022-12-29T07:11:54.160Z,33.00
2022-12-29T07:12:25.709Z,30.55
2022-12-29T07:12:57.413Z,31.52
2022-12-29T07:13:29.856Z,36.05
2022-12-29T07:14:02.403Z,35.83
2022-12-29T07:14:40.742Z,36.10
2022-12-29T07:15:14.397Z,35.95
2022-12-29T07:15:46.026Z,37.00
2022-12-29T07:16:17.663Z,38.50
2022-12-29T07:16:49.347Z,38.55
2022-12-29T07:17:20.996Z,38.10
2022-12-29T07:17:52.779Z,40.28
2022-12-29T07:18:25.034Z,38.03
2022-12-29T07:18:57.712Z,35.03
2022-12-29T07:19:29.291Z,37.70
2022-12-29T07:20:00.887Z,36.20
2022-12-29T07:20:32.802Z,35.17
2022-12-29T07:21:04.638Z,37.42
2022-12-29T07:21:36.256Z,35.55
2022-12-29T07:22:07.872Z,33.90
2022-12-29T07:22:39.769Z,33.40
2022-12-29T07:23:11.809Z,35.25
2022-12-29T07:23:43.377Z,34.50
2022-12-29T07:24:14.960Z,34.47
2022-12-29T07:24:46.564Z,36.05
2022-12-29T07:25:18.389Z,35.40
2022-12-29T07:25:50.052Z,35.72
2022-12-29T07:26:22.214Z,36.40
2022-12-29T07:26:53.817Z,33.40
2022-12-29T07:27:25.382Z,34.85
2022-12-29T07:27:56.997Z,33.25
2022-12-29T07:28:28.695Z,33.22
2022-12-29T07:29:02.211Z,34.95
2022-12-29T07:29:34.442Z,37.42
2022-12-29T07:30:06.547Z,36.08
2022-12-29T07:30:39.552Z,32.60
2022-12-29T07:31:16.667Z,34.88
2022-12-29T07:31:48.257Z,37.90
2022-12-29T07:32:19.916Z,35.45
2022-12-29T07:32:51.557Z,32.88
2022-12-29T07:33:23.266Z,35.40
2022-12-29T07:33:55.512Z,36.33